Time;durP1;ratioP1;P1;durP2;ratioP2;P2;SDS_P1;SDS_P2;PMS_P1;PMS_P2;Temp;Humidity;BMP_temperature;BMP_pressure;BME280_temperature;BME280_humidity;BME280_pressure;Samples;Min_cycle;Max_cycle;Signal;HPM_P1;HPM_P2
2021/10/05 00:01:28;;;;;;;43.13;18.42;;;;;;;5.02;100.00;101643.52;1693902;84;21013;-79
2021/10/05 00:03:55;;;;;;;47.45;19.02;;;;;;;5.00;100.00;101645.23;1696584;84;21046;-81
2021/10/05 00:06:21;;;;;;;37.00;19.10;;;;;;;4.97;100.00;101641.26;1674269;85;21112;-81
2021/10/05 00:08:48;;;;;;;39.88;18.57;;;;;;;4.94;100.00;101641.23;1675280;85;21100;-80
2021/10/05 00:11:15;;;;;;;34.30;17.50;;;;;;;4.90;100.00;101641.66;1696485;84;22376;-81
2021/10/05 00:13:42;;;;;;;32.75;18.60;;;;;;;4.88;100.00;101646.39;1701856;84;21141;-80
2021/10/05 00:16:08;;;;;;;37.35;17.45;;;;;;;4.86;100.00;101640.30;1701376;84;21082;-78
2021/10/05 00:18:36;;;;;;;30.85;16.95;;;;;;;4.86;100.00;101642.91;1701416;84;21137;-80
2021/10/05 00:21:04;;;;;;;33.85;17.80;;;;;;;4.84;100.00;101643.75;1701085;84;21097;-80
2021/10/05 00:23:31;;;;;;;33.28;18.77;;;;;;;4.80;100.00;101636.74;1701270;84;21215;-80
2021/10/05 00:25:57;;;;;;;34.05;18.82;;;;;;;4.77;100.00;101635.42;1701027;84;21078;-81
2021/10/05 00:28:24;;;;;;;33.20;18.90;;;;;;;4.75;100.00;101631.91;1701378;84;21054;-79
2021/10/05 00:30:50;;;;;;;32.42;18.20;;;;;;;4.74;100.00;101631.48;1701372;84;22077;-80
2021/10/05 00:33:17;;;;;;;33.20;18.40;;;;;;;4.74;100.00;101639.71;1701055;84;21047;-77
2021/10/05 00:35:43;;;;;;;38.20;19.32;;;;;;;4.73;100.00;101637.97;1701069;84;21172;-79
2021/10/05 00:38:10;;;;;;;39.10;21.57;;;;;;;4.69;100.00;101638.36;1701246;84;21102;-80
2021/10/05 00:40:36;;;;;;;42.03;22.07;;;;;;;4.67;100.00;101632.27;1701407;84;21005;-80
2021/10/05 00:43:02;;;;;;;36.55;20.52;;;;;;;4.66;100.00;101635.72;1701215;84;21123;-80
2021/10/05 00:45:28;;;;;;;37.33;20.15;;;;;;;4.65;100.00;101632.68;1701447;84;21050;-79
2021/10/05 00:47:55;;;;;;;36.42;19.98;;;;;;;4.66;100.00;101633.11;1701207;84;21548;-79
2021/10/05 00:50:22;;;;;;;39.70;21.07;;;;;;;4.65;100.00;101635.30;1701094;82;21125;-82
2021/10/05 00:52:49;;;;;;;41.02;21.35;;;;;;;4.67;100.00;101642.71;1701057;83;21028;-82
2021/10/05 00:55:15;;;;;;;40.70;21.12;;;;;;;4.66;100.00;101639.64;1701041;84;21074;-82
2021/10/05 00:57:42;;;;;;;43.35;21.40;;;;;;;4.65;100.00;101635.30;1701216;84;21581;-83
2021/10/05 01:00:11;;;;;;;40.73;20.45;;;;;;;4.66;100.00;101642.25;1701203;84;21190;-83
2021/10/05 01:02:38;;;;;;;41.33;20.02;;;;;;;4.64;100.00;101640.05;1704438;84;21027;-82
2021/10/05 01:05:07;;;;;;;42.85;20.97;;;;;;;4.63;100.00;101643.53;1708194;83;21045;-84
2021/10/05 01:07:35;;;;;;;40.63;19.48;;;;;;;4.62;100.00;101647.88;1720363;83;21048;-83
2021/10/05 01:10:04;;;;;;;46.92;21.02;;;;;;;4.61;100.00;101646.11;1720094;83;21010;-82
2021/10/05 01:12:31;;;;;;;52.60;22.73;;;;;;;4.60;100.00;101649.59;1720242;83;21134;-83
2021/10/05 01:14:59;;;;;;;40.10;20.15;;;;;;;4.60;100.00;101647.38;1720412;83;21010;-84
2021/10/05 01:17:26;;;;;;;39.23;21.77;;;;;;;4.59;100.00;101653.47;1720231;83;21520;-81
2021/10/05 01:19:53;;;;;;;55.45;21.90;;;;;;;4.60;100.00;101652.60;1720498;83;21579;-82
2021/10/05 01:22:19;;;;;;;40.33;20.43;;;;;;;4.58;100.00;101650.44;1720408;83;21551;-83
2021/10/05 01:24:45;;;;;;;44.98;22.40;;;;;;;4.58;100.00;101651.73;1720465;83;21211;-82
2021/10/05 01:27:12;;;;;;;39.73;21.57;;;;;;;4.57;100.00;101653.45;1720102;83;21014;-83
2021/10/05 01:29:38;;;;;;;52.10;23.75;;;;;;;4.57;100.00;101653.87;1720145;83;21033;-84
2021/10/05 01:32:07;;;;;;;40.92;21.50;;;;;;;4.55;100.00;101655.59;1720354;83;21029;-82
2021/10/05 01:34:34;;;;;;;42.83;20.23;;;;;;;4.53;100.00;101655.59;1720214;83;21049;-83
2021/10/05 01:37:00;;;;;;;40.48;19.92;;;;;;;4.54;100.00;101662.98;1720316;83;21103;-80
2021/10/05 01:39:40;;;;;;;41.20;20.85;;;;;;;4.53;100.00;101658.20;1720301;83;21112;-81
2021/10/05 01:42:09;;;;;;;41.60;20.77;;;;;;;4.54;100.00;101662.98;1720646;83;21073;-81
2021/10/05 01:44:36;;;;;;;40.33;21.17;;;;;;;4.53;100.00;101659.91;1720418;83;21075;-80
2021/10/05 01:47:06;;;;;;;42.85;21.05;;;;;;;4.53;100.00;101666.44;1720352;83;21092;-79
2021/10/05 01:49:33;;;;;;;;;;;;;;;4.51;100.00;101660.31;1723058;83;21686;-80
2021/10/05 01:52:00;;;;;;;38.60;19.27;;;;;;;4.50;100.00;101662.05;1720327;83;20184;-80
2021/10/05 01:54:27;;;;;;;41.23;21.30;;;;;;;4.47;100.00;101670.30;1720299;83;21049;-81
2021/10/05 01:56:53;;;;;;;43.58;21.68;;;;;;;4.47;100.00;101667.69;1720419;83;21105;-78
2021/10/05 01:59:19;;;;;;;45.60;22.65;;;;;;;4.46;100.00;101672.00;1720291;83;21100;-80
2021/10/05 02:01:46;;;;;;;47.53;23.98;;;;;;;4.44;100.00;101675.05;1719116;83;21161;-80
2021/10/05 02:04:12;;;;;;;50.25;25.77;;;;;;;4.47;100.00;101675.51;1717026;83;21081;-82
2021/10/05 02:06:39;;;;;;;47.23;25.90;;;;;;;4.44;100.00;101678.06;1717861;83;21073;-82
2021/10/05 02:09:08;;;;;;;51.42;27.25;;;;;;;4.38;100.00;101670.61;1717525;83;21544;-82
2021/10/05 02:11:35;;;;;;;43.50;24.70;;;;;;;4.43;100.00;101680.23;1717826;83;22099;-82
2021/10/05 02:14:02;;;;;;;47.33;26.75;;;;;;;4.40;100.00;101676.72;1717384;83;21567;-82
2021/10/05 02:16:31;;;;;;;49.05;26.50;;;;;;;4.41;100.00;101682.81;1717618;83;21053;-82
2021/10/05 02:18:57;;;;;;;51.53;24.82;;;;;;;4.41;100.00;101684.98;1717344;83;21055;-83
2021/10/05 02:21:23;;;;;;;46.65;26.00;;;;;;;4.40;100.00;101683.25;1717722;83;21062;-81
2021/10/05 02:26:36;;;;;;;50.43;26.48;;;;;;;4.41;100.00;101687.59;1717441;83;21192;-81
2021/10/05 02:29:03;;;;;;;49.15;27.00;;;;;;;4.39;100.00;101691.94;1717328;83;21121;-82
2021/10/05 02:31:30;;;;;;;50.00;26.95;;;;;;;4.38;100.00;101691.91;1717384;83;21034;-81
2021/10/05 02:33:56;;;;;;;53.68;29.05;;;;;;;4.37;100.00;101696.26;1717372;83;21076;-82
2021/10/05 02:36:23;;;;;;;54.20;28.95;;;;;;;4.36;100.00;101690.58;1717831;83;21591;-83
2021/10/05 02:38:49;;;;;;;57.90;29.18;;;;;;;4.34;100.00;101687.50;1717266;83;21100;-82
2021/10/05 02:41:16;;;;;;;51.85;29.32;;;;;;;4.34;100.00;101698.80;1717550;83;21060;-81
2021/10/05 02:43:42;;;;;;;54.55;28.47;;;;;;;4.35;100.00;101704.92;1717386;83;21049;-82
2021/10/05 02:46:09;;;;;;;54.08;28.57;;;;;;;4.33;100.00;101696.20;1717499;83;21105;-83
2021/10/05 02:48:36;;;;;;;67.53;27.70;;;;;;;4.35;100.00;101699.27;1717670;83;21065;-82
2021/10/05 02:51:03;;;;;;;60.05;29.37;;;;;;;4.34;100.00;101698.80;1717099;83;21082;-82
2021/10/05 02:53:29;;;;;;;55.25;29.37;;;;;;;4.33;100.00;101694.45;1717501;83;21547;-80
2021/10/05 02:55:56;;;;;;;54.95;28.10;;;;;;;4.31;100.00;101697.91;1717364;83;21069;-82
2021/10/05 02:58:23;;;;;;;57.35;30.20;;;;;;;4.30;100.00;101699.64;1717322;83;21129;-79
2021/10/05 03:00:49;;;;;;;66.77;34.55;;;;;;;4.28;100.00;101706.56;1716564;83;21085;-81
2021/10/05 03:03:16;;;;;;;62.98;35.83;;;;;;;4.28;100.00;101703.95;1715371;83;21156;-80
2021/10/05 03:05:42;;;;;;;69.82;35.90;;;;;;;4.27;100.00;101710.02;1716380;83;21089;-79
2021/10/05 03:08:09;;;;;;;65.25;34.90;;;;;;;4.26;100.00;101708.27;1717276;83;21057;-79
2021/10/05 03:10:36;;;;;;;68.95;34.55;;;;;;;4.26;100.00;101706.97;1717741;83;21058;-81
2021/10/05 03:13:04;;;;;;;63.10;32.60;;;;;;;4.23;100.00;101710.81;1717437;83;21097;-75
2021/10/05 03:15:31;;;;;;;63.08;31.17;;;;;;;4.22;100.00;101716.90;1717384;83;21801;-76
2021/10/05 03:17:58;;;;;;;62.27;31.42;;;;;;;4.18;100.00;101709.88;1717171;83;21065;-76
2021/10/05 03:20:24;;;;;;;59.15;29.72;;;;;;;4.17;100.00;101713.36;1717412;83;21115;-77
2021/10/05 03:22:51;;;;;;;62.25;29.35;;;;;;;4.16;100.00;101715.49;1717205;83;21493;-77
2021/10/05 03:25:18;;;;;;;56.92;29.18;;;;;;;4.13;100.00;101720.23;1717393;83;21049;-75
2021/10/05 03:27:44;;;;;;;49.83;26.82;;;;;;;4.12;100.00;101722.41;1717509;83;21147;-78
2021/10/05 03:30:13;;;;;;;55.28;27.95;;;;;;;4.13;100.00;101719.38;1717017;83;21639;-78
2021/10/05 03:32:39;;;;;;;60.88;26.87;;;;;;;4.12;100.00;101722.84;1717540;83;21561;-76
2021/10/05 03:35:07;;;;;;;50.98;25.82;;;;;;;4.12;100.00;101721.55;1717228;83;21021;-78
2021/10/05 03:37:34;;;;;;;52.53;27.65;;;;;;;4.10;100.00;101717.59;1717848;83;21052;-79
2021/10/05 03:40:00;;;;;;;52.70;25.68;;;;;;;4.10;100.00;101714.13;1717276;83;21165;-79
2021/10/05 03:42:27;;;;;;;56.85;28.70;;;;;;;4.09;100.00;101721.48;1717446;83;21057;-77
2021/10/05 03:44:54;;;;;;;50.05;26.75;;;;;;;4.08;100.00;101722.34;1716967;83;21057;-77
2021/10/05 03:47:20;;;;;;;52.58;26.73;;;;;;;4.05;100.00;101721.87;1717150;83;21006;-78
2021/10/05 03:49:47;;;;;;;59.65;27.22;;;;;;;4.04;100.00;101727.05;1714634;82;21032;-77
2021/10/05 03:52:14;;;;;;;51.90;26.27;;;;;;;4.04;100.00;101721.84;1697236;82;21827;-74
2021/10/05 03:54:42;;;;;;;58.15;26.25;;;;;;;4.03;100.00;101726.19;1672044;85;22003;-76
2021/10/05 03:57:09;;;;;;;63.52;27.70;;;;;;;4.04;100.00;101726.62;1686324;83;21093;-76
2021/10/05 03:59:35;;;;;;;56.58;26.80;;;;;;;4.04;100.00;101735.75;1716532;83;21673;-76
2021/10/05 04:02:03;;;;;;;57.20;26.12;;;;;;;4.04;100.00;101733.57;1713155;82;21538;-76
2021/10/05 04:04:30;;;;;;;51.98;25.77;;;;;;;4.02;100.00;101737.45;1707398;84;21145;-75
2021/10/05 04:06:56;;;;;;;52.38;26.68;;;;;;;4.01;100.00;101733.53;1675924;85;21065;-74
2021/10/05 04:09:23;;;;;;;57.95;29.30;;;;;;;4.00;100.00;101740.45;1648829;87;21084;-75
2021/10/05 04:11:50;;;;;;;53.63;25.30;;;;;;;3.99;100.00;101739.58;1675648;85;21033;-76
2021/10/05 04:14:18;;;;;;;56.25;27.02;;;;;;;3.97;100.00;101741.29;1675688;85;21072;-75
2021/10/05 04:16:44;;;;;;;54.25;27.22;;;;;;;3.98;100.00;101740.45;1675915;85;21131;-74
2021/10/05 04:19:11;;;;;;;50.17;26.20;;;;;;;3.97;100.00;101742.59;1649480;85;21125;-74
2021/10/05 04:21:38;;;;;;;57.73;28.45;;;;;;;3.97;100.00;101737.38;1699761;82;21089;-81
2021/10/05 04:24:05;;;;;;;53.48;26.55;;;;;;;3.97;100.00;101745.20;1733832;82;21088;-83
2021/10/05 04:26:31;;;;;;;60.50;25.45;;;;;;;3.97;100.00;101743.89;1667953;84;21094;-81
2021/10/05 04:28:57;;;;;;;52.33;27.13;;;;;;;4.00;100.00;101754.80;1707544;84;21144;-82
2021/10/05 04:31:24;;;;;;;55.33;25.80;;;;;;;4.02;100.00;101760.05;1707886;83;21693;-82
2021/10/05 04:33:50;;;;;;;57.58;28.27;;;;;;;4.04;100.00;101763.55;1707777;84;21017;-76
2021/10/05 04:36:17;;;;;;;54.55;25.80;;;;;;;4.08;100.00;101771.88;1686606;84;21621;-81
2021/10/05 04:38:43;;;;;;;59.83;26.30;;;;;;;4.09;100.00;101764.06;1700392;84;21274;-79
2021/10/05 04:41:12;;;;;;;57.43;26.48;;;;;;;4.12;100.00;101764.56;1700048;84;21158;-79
2021/10/05 04:43:38;;;;;;;57.45;27.85;;;;;;;4.15;100.00;101772.42;1699836;83;21612;-83
2021/10/05 04:46:04;;;;;;;56.35;27.67;;;;;;;4.18;100.00;101764.64;1700236;84;21115;-82
2021/10/05 04:48:32;;;;;;;55.05;28.20;;;;;;;4.20;100.00;101767.72;1699611;84;21103;-76
2021/10/05 04:50:58;;;;;;;61.73;27.10;;;;;;;4.26;100.00;101767.38;1682809;84;21081;-76
2021/10/05 04:53:25;;;;;;;60.20;27.40;;;;;;;4.49;100.00;101774.24;1699657;84;21150;-82
2021/10/05 04:55:51;;;;;;;67.40;28.27;;;;;;;4.85;100.00;101771.23;1699292;84;21563;-83
2021/10/05 04:58:18;;;;;;;67.40;29.65;;;;;;;5.24;100.00;101778.69;1699762;84;21732;-77
2021/10/05 05:00:44;;;;;;;72.10;28.83;;;;;;;5.59;100.00;101779.48;1708456;82;21112;-78
2021/10/05 05:03:11;;;;;;;66.85;27.58;;;;;;;5.76;100.00;101784.86;1727792;82;21064;-77
2021/10/05 05:05:38;;;;;;;60.15;27.95;;;;;;;6.02;100.00;101780.32;1719227;82;21146;-76
2021/10/05 05:08:05;;;;;;;62.90;27.13;;;;;;;6.39;100.00;101783.21;1758976;81;21624;-77
2021/10/05 05:10:33;;;;;;;82.17;31.23;;;;;;;6.74;100.00;101778.20;1755849;81;21037;-79
2021/10/05 05:12:59;;;;;;;78.65;30.85;;;;;;;7.07;98.26;101788.38;1756007;81;21072;-77
2021/10/05 05:15:26;;;;;;;70.40;28.57;;;;;;;7.35;95.88;101784.97;1761789;81;21069;-77
2021/10/05 05:17:53;;;;;;;80.22;30.85;;;;;;;7.63;94.47;101788.96;1758609;81;22083;-78
2021/10/05 05:20:20;;;;;;;81.42;29.67;;;;;;;7.92;91.90;101799.94;1694706;84;21017;-76
2021/10/05 05:22:46;;;;;;;80.60;30.92;;;;;;;8.18;89.86;101798.17;1710391;83;21097;-78
2021/10/05 05:25:13;;;;;;;91.28;32.70;;;;;;;8.39;88.71;101791.16;1710110;83;21722;-75
2021/10/05 05:27:40;;;;;;;91.45;32.65;;;;;;;8.65;87.72;101799.45;1702604;83;21076;-76
2021/10/05 05:30:08;;;;;;;81.80;32.53;;;;;;;8.86;86.00;101799.83;1681265;85;21227;-77
2021/10/05 05:32:35;;;;;;;85.47;33.33;;;;;;;9.10;83.24;101802.82;1681216;84;21072;-78
2021/10/05 05:35:03;;;;;;;86.95;31.52;;;;;;;9.35;82.79;101805.77;1712754;82;21072;-76
2021/10/05 05:37:29;;;;;;;77.10;29.65;;;;;;;9.59;82.08;101807.81;1699957;83;21564;-76
2021/10/05 05:39:56;;;;;;;92.15;32.40;;;;;;;9.82;79.73;101807.24;1678208;84;21135;-78
2021/10/05 05:42:22;;;;;;;87.40;32.42;;;;;;;10.06;78.23;101811.88;1668207;84;21136;-77
2021/10/05 05:44:51;;;;;;;67.45;27.37;;;;;;;10.26;77.78;101806.01;1689290;83;21112;-77
2021/10/05 05:47:18;;;;;;;85.07;32.20;;;;;;;10.49;75.42;101812.86;1714334;82;21057;-78
2021/10/05 05:49:44;;;;;;;58.52;27.65;;;;;;;10.64;73.89;101810.05;1709623;82;21054;-78
2021/10/05 05:52:10;;;;;;;65.55;26.90;;;;;;;10.80;73.26;101811.21;1679295;84;21089;-77
2021/10/05 05:54:37;;;;;;;46.88;24.43;;;;;;;10.90;72.81;101816.80;1662056;83;21250;-77
2021/10/05 05:57:03;;;;;;;49.58;25.05;;;;;;;11.15;71.45;101807.28;1709686;82;21068;-77
2021/10/05 05:59:30;;;;;;;44.58;23.85;;;;;;;11.36;70.27;101804.80;1696364;83;21083;-77
2021/10/05 06:01:56;;;;;;;46.15;24.40;;;;;;;11.47;69.55;101806.39;1698227;84;21038;-77
2021/10/05 06:04:23;;;;;;;44.65;22.87;;;;;;;11.46;69.05;101803.80;1717877;83;21103;-77
2021/10/05 06:06:51;;;;;;;40.10;22.65;;;;;;;11.68;69.74;101806.98;1706338;84;21053;-77
2021/10/05 06:09:17;;;;;;;40.52;22.67;;;;;;;12.07;68.09;101806.84;1707587;84;21062;-78
2021/10/05 06:11:44;;;;;;;31.20;20.05;;;;;;;12.39;66.01;101802.32;1698240;83;21511;-79
2021/10/05 06:14:11;;;;;;;42.10;21.90;;;;;;;12.61;64.67;101805.91;1704917;84;21118;-77
2021/10/05 06:16:37;;;;;;;43.65;21.60;;;;;;;12.76;63.79;101802.95;1707789;84;21091;-77
2021/10/05 06:19:03;;;;;;;39.53;21.15;;;;;;;12.92;62.82;101806.63;1708041;84;21270;-77
2021/10/05 06:21:31;;;;;;;38.67;22.42;;;;;;;13.14;63.38;101810.59;1707391;84;21129;-77
2021/10/05 06:23:57;;;;;;;35.92;20.57;;;;;;;13.41;61.68;101805.62;1707123;83;21096;-77
2021/10/05 06:26:23;;;;;;;38.53;21.97;;;;;;;13.73;64.78;101811.97;1701484;83;21096;-77
2021/10/05 06:28:52;;;;;;;35.00;21.37;;;;;;;14.18;61.18;101821.05;1706810;84;21077;-78
2021/10/05 06:31:19;;;;;;;34.33;21.95;;;;;;;14.41;58.15;101825.75;1669539;84;21165;-77
2021/10/05 06:33:45;;;;;;;36.25;22.50;;;;;;;14.45;57.98;101819.02;1710680;80;21528;-78
2021/10/05 06:36:12;;;;;;;32.63;20.65;;;;;;;14.52;57.99;101824.16;1768972;80;21637;-79
2021/10/05 06:38:39;;;;;;;34.35;21.37;;;;;;;14.64;57.85;101825.19;1761926;81;21048;-78
2021/10/05 06:41:06;;;;;;;33.30;21.00;;;;;;;14.30;58.24;101831.33;1762003;80;21586;-79
2021/10/05 06:43:32;;;;;;;38.95;21.57;;;;;;;14.39;57.41;101820.48;1727726;82;22149;-80
2021/10/05 06:46:00;;;;;;;35.50;21.30;;;;;;;14.78;58.59;101824.34;1713630;82;21694;-79
2021/10/05 06:48:27;;;;;;;30.57;20.52;;;;;;;15.17;56.21;101820.15;1720194;80;21150;-77
2021/10/05 06:50:53;;;;;;;30.90;20.25;;;;;;;15.46;55.10;101827.69;1749766;80;21022;-80
2021/10/05 06:53:20;;;;;;;36.08;21.23;;;;;;;15.61;54.92;101821.05;1757882;80;21094;-78
2021/10/05 06:55:47;;;;;;;29.90;19.82;;;;;;;15.63;54.64;101816.56;1727447;82;21182;-76
2021/10/05 06:58:14;;;;;;;30.30;20.68;;;;;;;15.76;54.53;101817.06;1768716;80;21556;-78
2021/10/05 07:00:41;;;;;;;32.40;20.65;;;;;;;15.86;54.08;101814.54;1770036;80;21113;-75
2021/10/05 07:03:07;;;;;;;33.88;21.07;;;;;;;16.06;53.86;101813.43;1747389;79;21498;-75
2021/10/05 07:05:34;;;;;;;29.12;18.55;;;;;;;16.02;53.50;101811.78;1698602;83;21099;-79
2021/10/05 07:08:07;;;;;;;29.75;18.45;;;;;;;16.24;53.08;101819.03;1687269;84;21428;-80
2021/10/05 07:10:34;;;;;;;30.62;18.57;;;;;;;16.39;54.94;101817.19;1697896;84;21549;-81
2021/10/05 07:13:01;;;;;;;25.52;17.20;;;;;;;16.76;52.34;101825.20;1723356;83;21015;-80
2021/10/05 07:15:27;;;;;;;34.13;19.48;;;;;;;16.47;52.15;101821.80;1722059;83;21034;-80
2021/10/05 07:17:55;;;;;;;30.43;18.65;;;;;;;16.54;53.10;101818.00;1690186;84;22121;-81
2021/10/05 07:20:21;;;;;;;27.45;17.30;;;;;;;16.91;51.31;101823.36;1733242;80;22317;-74
2021/10/05 07:22:48;;;;;;;32.45;18.60;;;;;;;17.12;51.75;101822.17;1709743;83;21135;-74
2021/10/05 07:25:15;;;;;;;27.85;17.77;;;;;;;17.48;50.06;101819.00;1759655;81;21075;-74
2021/10/05 07:27:50;;;;;;;22.87;16.12;;;;;;;17.78;49.24;101816.48;1759738;81;21035;-73
2021/10/05 07:30:11;;;;;;;27.25;16.52;;;;;;;18.10;49.90;101830.29;1757337;81;21055;-74
2021/10/05 07:32:37;;;;;;;21.77;13.70;;;;;;;18.53;46.74;101821.81;1761311;81;21113;-74
2021/10/05 07:35:05;;;;;;;25.43;16.90;;;;;;;18.61;44.93;101823.69;1707655;82;21085;-83
2021/10/05 07:37:31;;;;;;;23.65;15.75;;;;;;;18.33;45.44;101828.47;1732369;82;21067;-83
2021/10/05 07:39:57;;;;;;;24.67;16.32;;;;;;;18.57;44.65;101824.75;1734645;82;20997;-82
2021/10/05 07:42:23;;;;;;;25.17;15.60;;;;;;;18.83;44.83;101824.09;1736454;81;20997;-82
2021/10/05 07:44:50;;;;;;;27.07;19.30;;;;;;;18.93;43.71;101821.40;1724952;83;21504;-83
2021/10/05 07:47:16;;;;;;;26.80;18.05;;;;;;;19.27;42.78;101822.05;1723648;83;21652;-82
2021/10/05 07:49:43;;;;;;;29.75;19.75;;;;;;;19.50;42.47;101822.78;1729209;79;21074;-69
2021/10/05 07:52:14;;;;;;;30.85;18.90;;;;;;;19.66;41.96;101823.78;1765873;80;21072;-69
2021/10/05 07:54:39;;;;;;;26.85;18.40;;;;;;;19.85;42.04;101828.27;1771619;80;21531;-72
2021/10/05 07:57:07;;;;;;;30.10;17.95;;;;;;;20.19;41.14;101833.28;1772544;80;21109;-71
2021/10/05 07:59:33;;;;;;;25.75;16.77;;;;;;;20.30;39.66;101817.08;1772602;80;21040;-71
2021/10/05 08:02:00;;;;;;;28.50;18.25;;;;;;;20.37;39.31;101827.48;1773372;80;21549;-71
2021/10/05 08:04:26;;;;;;;27.55;17.87;;;;;;;20.15;39.47;101828.55;1773712;80;21029;-71
2021/10/05 08:06:53;;;;;;;24.60;16.87;;;;;;;20.06;39.85;101834.36;1773357;80;21091;-72
2021/10/05 08:09:19;;;;;;;25.32;17.17;;;;;;;20.01;39.62;101831.05;1773853;80;21092;-72
2021/10/05 08:11:46;;;;;;;24.82;16.00;;;;;;;20.11;39.95;101826.99;1772996;80;21598;-70
2021/10/05 08:14:13;;;;;;;29.90;16.60;;;;;;;20.37;39.71;101827.48;1773813;80;21105;-72
2021/10/05 08:16:40;;;;;;;23.55;16.35;;;;;;;20.47;39.52;101832.25;1773635;80;21048;-71
2021/10/05 08:19:06;;;;;;;24.65;16.20;;;;;;;20.69;39.30;101836.06;1735175;82;21470;-71
2021/10/05 08:21:34;;;;;;;23.00;15.32;;;;;;;20.89;38.46;101832.34;1704403;84;21143;-71
2021/10/05 08:24:02;;;;;;;27.15;15.55;;;;;;;20.86;37.88;101832.48;1704056;83;21007;-70
2021/10/05 08:26:28;;;;;;;23.98;16.27;;;;;;;20.83;38.13;101830.46;1704061;84;21176;-71
2021/10/05 08:28:55;;;;;;;21.33;14.65;;;;;;;20.72;38.02;101825.19;1704263;84;21071;-70
2021/10/05 08:31:21;;;;;;;19.55;14.43;;;;;;;20.70;38.15;101819.05;1705587;84;21015;-70
2021/10/05 08:33:48;;;;;;;21.20;13.13;;;;;;;20.65;38.01;101825.59;1679729;85;21425;-69
2021/10/05 08:36:18;;;;;;;20.88;14.45;;;;;;;20.70;38.06;101821.72;1679754;84;21057;-71
2021/10/05 08:38:45;;;;;;;21.33;14.80;;;;;;;20.90;37.60;101823.83;1753711;81;20904;-71
2021/10/05 08:41:11;;;;;;;19.82;13.58;;;;;;;20.86;37.54;101832.97;1746141;82;22399;-71
2021/10/05 08:43:38;;;;;;;18.20;14.05;;;;;;;20.76;37.72;101830.40;1758616;80;21064;-71
2021/10/05 08:46:05;;;;;;;18.45;13.45;;;;;;;20.81;37.76;101823.84;1772694;80;21125;-70
2021/10/05 08:48:35;;;;;;;19.82;14.60;;;;;;;21.07;37.06;101819.78;1733708;82;21031;-71
2021/10/05 08:51:03;;;;;;;18.70;13.20;;;;;;;21.06;36.86;101821.19;1779476;78;21012;-70
2021/10/05 08:53:31;;;;;;;18.20;12.60;;;;;;;21.05;37.74;101825.69;1783939;78;21071;-70
2021/10/05 08:55:58;;;;;;;18.75;12.58;;;;;;;21.42;36.91;101821.02;1780590;78;21155;-70
2021/10/05 08:58:25;;;;;;;30.30;14.68;;;;;;;21.58;36.32;101831.27;1765223;80;21305;-69
2021/10/05 09:00:54;;;;;;;20.70;13.98;;;;;;;21.41;36.54;101830.48;1762790;80;21121;-71
2021/10/05 09:03:23;;;;;;;19.15;13.20;;;;;;;21.32;36.20;101833.15;1740278;81;21113;-70
2021/10/05 09:07:57;;;;;;;18.25;12.58;;;;;;;21.42;36.05;101823.70;1781241;79;22621;-71
2021/10/05 09:10:31;;;;;;;27.65;13.65;;;;;;;21.23;36.24;101820.27;1757977;80;20974;-70
2021/10/05 09:12:59;;;;;;;23.55;13.28;;;;;;;21.16;36.52;101823.30;1739850;80;21072;-71
2021/10/05 09:15:26;;;;;;;23.15;13.08;;;;;;;21.36;36.84;101823.52;1750092;81;20957;-71
2021/10/05 09:17:58;;;;;;;18.67;12.37;;;;;;;21.43;36.30;101816.52;1704217;81;21100;-71
2021/10/05 09:20:32;;;;;;;24.20;13.58;;;;;;;21.57;35.75;101814.78;1744799;81;21004;-70
2021/10/05 09:23:06;;;;;;;21.60;11.60;;;;;;;21.71;35.38;101816.67;1753422;81;20976;-71
2021/10/05 09:25:37;;;;;;;17.75;11.83;;;;;;;21.68;34.93;101823.56;1754449;81;21106;-71
2021/10/05 09:28:20;;;;;;;15.13;11.15;;;;;;;21.73;35.02;101819.28;1754264;81;21109;-70
2021/10/05 09:31:00;;;;;;;19.42;13.05;;;;;;;21.62;34.63;101821.70;1749732;81;21085;-71
2021/10/05 09:33:28;;;;;;;17.82;12.60;;;;;;;21.33;35.42;101821.50;1734758;81;21073;-70
2021/10/05 09:35:54;;;;;;;17.42;11.10;;;;;;;21.01;35.85;101816.08;1754374;81;21102;-70
2021/10/05 09:38:24;;;;;;;22.32;12.82;;;;;;;20.65;36.26;101821.10;1749992;80;21057;-71
2021/10/05 09:41:06;;;;;;;19.50;13.00;;;;;;;20.50;36.71;101816.54;1744582;81;21073;-71
2021/10/05 09:43:33;;;;;;;17.42;12.28;;;;;;;20.73;36.97;101817.56;1756088;81;20998;-70
2021/10/05 09:46:14;;;;;;;18.25;11.40;;;;;;;21.16;35.52;101809.91;1773270;80;21111;-72
2021/10/05 09:48:42;;;;;;;18.55;11.53;;;;;;;21.34;34.98;101809.81;1790182;80;21115;-74
2021/10/05 09:51:25;;;;;;;16.87;11.18;;;;;;;21.56;35.10;101801.48;1782395;80;21320;-76
2021/10/05 09:53:53;;;;;;;19.48;12.03;;;;;;;21.53;33.18;101799.84;1776548;80;21056;-75
2021/10/05 09:56:21;;;;;;;17.62;11.75;;;;;;;21.62;34.03;101807.81;1773035;80;21084;-75
2021/10/05 09:58:50;;;;;;;21.42;11.78;;;;;;;21.84;33.78;101803.44;1776503;80;21467;-73
2021/10/05 10:01:19;;;;;;;20.17;11.20;;;;;;;21.88;33.72;101807.68;1767632;80;21543;-74
2021/10/05 10:03:47;;;;;;;15.72;9.25;;;;;;;22.04;33.43;101809.45;1774895;80;21121;-74
2021/10/05 10:06:15;;;;;;;17.25;11.65;;;;;;;22.39;33.02;101805.58;1773765;80;21020;-74
2021/10/05 10:08:46;;;;;;;15.28;9.60;;;;;;;22.39;31.33;101798.01;1763019;80;21123;-74
2021/10/05 10:11:14;;;;;;;19.67;7.28;;;;;;;22.38;31.08;101798.49;1763033;80;21673;-73
2021/10/05 10:13:48;;;;;;;19.98;8.73;;;;;;;22.03;30.31;101801.02;1761903;80;21044;-74
2021/10/05 10:16:15;;;;;;;13.18;9.70;;;;;;;21.65;31.50;101798.28;1767070;80;21118;-74
2021/10/05 10:19:02;;;;;;;13.75;8.95;;;;;;;21.62;33.14;101795.75;1765739;80;21021;-73
2021/10/05 10:21:37;;;;;;;12.82;8.53;;;;;;;21.86;30.72;101794.83;1765024;80;21076;-75
2021/10/05 10:24:19;;;;;;;13.62;8.20;;;;;;;21.53;30.50;101801.63;1760016;80;21096;-73
2021/10/05 10:26:40;;;;;;;14.30;7.45;;;;;;;20.82;31.68;101792.56;1764303;80;21102;-74
2021/10/05 10:29:05;;;;;;;14.10;7.62;;;;;;;20.35;32.88;101787.89;1763593;80;21547;-75
2021/10/05 10:31:36;;;;;;;13.85;8.40;;;;;;;20.02;32.58;101795.36;1760311;80;21545;-77
2021/10/05 10:34:03;;;;;;;15.43;9.20;;;;;;;19.69;33.64;101805.42;1757420;80;21060;-74
2021/10/05 10:36:40;;;;;;;15.78;8.23;;;;;;;19.86;33.48;101785.42;1748698;80;21049;-75
2021/10/05 10:39:17;;;;;;;14.15;8.53;;;;;;;19.83;34.12;101780.23;1772231;80;21056;-75
2021/10/05 10:41:47;;;;;;;12.33;8.33;;;;;;;19.79;33.63;101784.00;1765481;80;21133;-74
2021/10/05 10:44:18;;;;;;;16.23;8.28;;;;;;;19.77;33.50;101780.53;1757629;80;21024;-74
2021/10/05 10:46:47;;;;;;;;;;;;;;;19.53;34.05;101779.02;1774744;80;21563;-74
2021/10/05 10:49:18;;;;;;;16.75;8.08;;;;;;;19.15;35.57;101773.70;1738194;80;20490;-74
2021/10/05 10:51:47;;;;;;;17.50;9.20;;;;;;;19.35;34.63;101768.29;1756227;80;21480;-74
2021/10/05 10:54:22;;;;;;;16.20;8.30;;;;;;;19.32;35.40;101764.89;1747877;82;21763;-73
2021/10/05 10:57:05;;;;;;;26.35;9.03;;;;;;;19.24;35.08;101759.92;1750351;80;21100;-74
2021/10/05 10:59:34;;;;;;;19.12;9.10;;;;;;;19.02;35.69;101766.25;1748021;82;21076;-75
2021/10/05 11:02:06;;;;;;;12.13;6.72;;;;;;;18.73;36.45;101772.05;1745176;82;21684;-75
2021/10/05 11:04:34;;;;;;;12.03;7.53;;;;;;;18.19;35.47;101767.25;1755985;80;21040;-76
2021/10/05 11:07:01;;;;;;;12.20;6.90;;;;;;;18.35;36.30;101765.26;1747508;81;21147;-76
2021/10/05 11:21:52;;;;;;;13.30;7.70;;;;;;;19.57;34.36;101746.73;1820287;77;21968;-74
2021/10/05 11:24:20;;;;;;;10.58;6.12;;;;;;;19.68;35.22;101746.20;1781803;79;21043;-74
2021/10/05 11:32:36;;;;;;;9.70;6.65;;;;;;;18.85;33.69;101756.83;1721286;81;21032;-76
2021/10/05 11:35:03;;;;;;;11.85;6.83;;;;;;;18.88;34.87;101736.66;1724358;83;21097;-78
2021/10/05 11:37:30;;;;;;;13.65;6.40;;;;;;;19.13;33.68;101743.53;1721618;81;21582;-77